Karlsborg, Sweden
Current Conditions -  °F | °C
As of 1:20 PM on Thursday 30 Oct 2014 (Local Time) from ESGR Reporting Station
Overcast Overcast  
Wind Chill: 44°   Ceiling: 12000
Heat Index: 46°   Visibility: 6mi
Dew Point: 36°   Wind: 6mph
Humidity: 66%   Direction: 240°WSW
Pressure: 30.18"   Gusts: NA
Location:  58.54°N, 14.5°E
Report Text: ESGR 301220Z AUTO 24005KT 9999 OVC120/// 08/02 Q1022
Loading
Personal Weather Stations






























Interactive Weather Map
Tropical Storm Tracking
New forecast layout! Learn more

10-Day Weather Forecast

Advertisements
Track Severe Weather on mobile